sensor_id;sensor_type;location;lat;lon;timestamp;P1;durP1;ratioP1;P2;durP2;ratioP2
3177;SDS011;38141;42.666;23.344;2023-05-10T00:01:26;9.77;;;6.57;;
3177;SDS011;38141;42.666;23.344;2023-05-10T00:03:54;10.53;;;7.10;;
3177;SDS011;38141;42.666;23.344;2023-05-10T00:06:21;12.63;;;7.73;;
3177;SDS011;38141;42.666;23.344;2023-05-10T00:08:48;9.80;;;6.50;;
3177;SDS011;38141;42.666;23.344;2023-05-10T00:11:15;9.70;;;7.07;;
3177;SDS011;38141;42.666;23.344;2023-05-10T00:13:41;11.50;;;7.80;;
3177;SDS011;38141;42.666;23.344;2023-05-10T00:16:08;11.10;;;7.13;;
3177;SDS011;38141;42.666;23.344;2023-05-10T00:18:35;9.70;;;7.60;;
3177;SDS011;38141;42.666;23.344;2023-05-10T00:21:03;12.03;;;7.47;;
3177;SDS011;38141;42.666;23.344;2023-05-10T00:23:31;10.30;;;7.30;;
3177;SDS011;38141;42.666;23.344;2023-05-10T00:25:59;14.40;;;8.10;;
3177;SDS011;38141;42.666;23.344;2023-05-10T00:28:27;10.13;;;7.20;;
3177;SDS011;38141;42.666;23.344;2023-05-10T00:30:53;11.60;;;8.40;;
3177;SDS011;38141;42.666;23.344;2023-05-10T00:33:21;12.17;;;7.67;;
3177;SDS011;38141;42.666;23.344;2023-05-10T00:35:48;12.97;;;8.40;;
3177;SDS011;38141;42.666;23.344;2023-05-10T00:38:16;11.20;;;7.90;;
3177;SDS011;38141;42.666;23.344;2023-05-10T00:40:43;10.93;;;7.83;;
3177;SDS011;38141;42.666;23.344;2023-05-10T00:43:10;13.87;;;8.80;;
3177;SDS011;38141;42.666;23.344;2023-05-10T00:45:37;13.20;;;8.93;;
3177;SDS011;38141;42.666;23.344;2023-05-10T00:48:06;11.40;;;8.47;;
3177;SDS011;38141;42.666;23.344;2023-05-10T00:50:33;16.67;;;9.10;;
3177;SDS011;38141;42.666;23.344;2023-05-10T00:53:00;14.67;;;9.30;;
3177;SDS011;38141;42.666;23.344;2023-05-10T00:55:30;15.10;;;10.03;;
3177;SDS011;38141;42.666;23.344;2023-05-10T00:57:57;13.63;;;9.10;;
3177;SDS011;38141;42.666;23.344;2023-05-10T01:00:24;15.33;;;9.80;;
3177;SDS011;38141;42.666;23.344;2023-05-10T01:02:50;14.93;;;9.30;;
3177;SDS011;38141;42.666;23.344;2023-05-10T01:05:19;13.20;;;8.77;;
3177;SDS011;38141;42.666;23.344;2023-05-10T01:07:46;15.23;;;8.33;;
3177;SDS011;38141;42.666;23.344;2023-05-10T01:10:13;12.67;;;9.47;;
3177;SDS011;38141;42.666;23.344;2023-05-10T01:12:42;12.83;;;8.90;;
3177;SDS011;38141;42.666;23.344;2023-05-10T01:15:11;12.10;;;8.50;;
3177;SDS011;38141;42.666;23.344;2023-05-10T01:17:40;17.23;;;9.40;;
3177;SDS011;38141;42.666;23.344;2023-05-10T01:20:09;13.83;;;9.40;;
3177;SDS011;38141;42.666;23.344;2023-05-10T01:22:42;13.97;;;9.67;;
3177;SDS011;38141;42.666;23.344;2023-05-10T01:25:42;12.73;;;9.50;;
3177;SDS011;38141;42.666;23.344;2023-05-10T01:28:41;11.13;;;7.83;;
3177;SDS011;38141;42.666;23.344;2023-05-10T01:31:33;9.37;;;6.40;;
3177;SDS011;38141;42.666;23.344;2023-05-10T01:34:25;11.27;;;8.17;;
3177;SDS011;38141;42.666;23.344;2023-05-10T01:36:58;10.30;;;7.67;;
3177;SDS011;38141;42.666;23.344;2023-05-10T01:39:32;10.40;;;7.37;;
3177;SDS011;38141;42.666;23.344;2023-05-10T01:42:03;10.63;;;7.87;;
3177;SDS011;38141;42.666;23.344;2023-05-10T01:44:35;8.50;;;6.37;;
3177;SDS011;38141;42.666;23.344;2023-05-10T01:47:09;10.20;;;7.40;;
3177;SDS011;38141;42.666;23.344;2023-05-10T01:49:40;10.00;;;7.47;;
3177;SDS011;38141;42.666;23.344;2023-05-10T01:52:12;9.33;;;6.77;;
3177;SDS011;38141;42.666;23.344;2023-05-10T01:54:43;10.20;;;7.10;;
3177;SDS011;38141;42.666;23.344;2023-05-10T01:57:15;7.70;;;5.90;;
3177;SDS011;38141;42.666;23.344;2023-05-10T01:59:45;10.40;;;7.00;;
3177;SDS011;38141;42.666;23.344;2023-05-10T02:02:18;11.00;;;6.77;;
3177;SDS011;38141;42.666;23.344;2023-05-10T02:04:47;10.33;;;6.87;;
3177;SDS011;38141;42.666;23.344;2023-05-10T02:07:15;7.53;;;5.77;;
3177;SDS011;38141;42.666;23.344;2023-05-10T02:09:44;8.23;;;5.80;;
3177;SDS011;38141;42.666;23.344;2023-05-10T02:12:13;7.73;;;5.90;;
3177;SDS011;38141;42.666;23.344;2023-05-10T02:14:40;7.40;;;5.60;;
3177;SDS011;38141;42.666;23.344;2023-05-10T02:17:08;8.17;;;6.03;;
3177;SDS011;38141;42.666;23.344;2023-05-10T02:19:39;7.30;;;5.63;;
3177;SDS011;38141;42.666;23.344;2023-05-10T02:22:08;6.73;;;5.37;;
3177;SDS011;38141;42.666;23.344;2023-05-10T02:24:35;9.10;;;5.50;;
3177;SDS011;38141;42.666;23.344;2023-05-10T02:27:03;8.40;;;6.37;;
3177;SDS011;38141;42.666;23.344;2023-05-10T02:29:31;8.20;;;4.97;;
3177;SDS011;38141;42.666;23.344;2023-05-10T02:31:59;8.70;;;5.80;;
3177;SDS011;38141;42.666;23.344;2023-05-10T02:34:27;6.60;;;5.43;;
3177;SDS011;38141;42.666;23.344;2023-05-10T02:36:56;8.07;;;6.03;;
3177;SDS011;38141;42.666;23.344;2023-05-10T02:39:24;7.50;;;5.93;;
3177;SDS011;38141;42.666;23.344;2023-05-10T02:41:53;8.93;;;5.20;;
3177;SDS011;38141;42.666;23.344;2023-05-10T02:44:22;10.43;;;5.87;;
3177;SDS011;38141;42.666;23.344;2023-05-10T02:46:49;7.73;;;4.40;;
3177;SDS011;38141;42.666;23.344;2023-05-10T02:49:16;9.20;;;4.73;;
3177;SDS011;38141;42.666;23.344;2023-05-10T02:51:50;7.30;;;5.20;;
3177;SDS011;38141;42.666;23.344;2023-05-10T02:54:27;7.77;;;5.43;;
3177;SDS011;38141;42.666;23.344;2023-05-10T02:56:59;8.70;;;5.70;;
3177;SDS011;38141;42.666;23.344;2023-05-10T02:59:28;6.83;;;4.90;;
3177;SDS011;38141;42.666;23.344;2023-05-10T03:01:56;7.37;;;4.87;;
3177;SDS011;38141;42.666;23.344;2023-05-10T03:04:22;9.70;;;5.50;;
3177;SDS011;38141;42.666;23.344;2023-05-10T03:06:49;8.57;;;5.80;;
3177;SDS011;38141;42.666;23.344;2023-05-10T03:09:16;8.23;;;5.90;;
3177;SDS011;38141;42.666;23.344;2023-05-10T03:11:47;9.53;;;5.90;;
3177;SDS011;38141;42.666;23.344;2023-05-10T03:14:24;10.10;;;6.63;;
3177;SDS011;38141;42.666;23.344;2023-05-10T03:17:06;9.03;;;6.00;;
3177;SDS011;38141;42.666;23.344;2023-05-10T03:19:40;8.73;;;5.23;;
3177;SDS011;38141;42.666;23.344;2023-05-10T03:22:17;8.53;;;5.70;;
3177;SDS011;38141;42.666;23.344;2023-05-10T03:24:51;13.70;;;6.10;;
3177;SDS011;38141;42.666;23.344;2023-05-10T03:27:23;9.50;;;6.57;;
3177;SDS011;38141;42.666;23.344;2023-05-10T03:29:53;9.57;;;5.60;;
3177;SDS011;38141;42.666;23.344;2023-05-10T03:32:22;8.30;;;6.23;;
3177;SDS011;38141;42.666;23.344;2023-05-10T03:34:49;7.60;;;5.97;;
3177;SDS011;38141;42.666;23.344;2023-05-10T03:37:16;8.10;;;5.90;;
3177;SDS011;38141;42.666;23.344;2023-05-10T03:39:42;8.53;;;6.00;;
3177;SDS011;38141;42.666;23.344;2023-05-10T03:42:09;7.67;;;5.60;;
3177;SDS011;38141;42.666;23.344;2023-05-10T03:44:38;7.40;;;5.73;;
3177;SDS011;38141;42.666;23.344;2023-05-10T03:47:05;11.73;;;6.60;;
3177;SDS011;38141;42.666;23.344;2023-05-10T03:49:32;11.50;;;7.00;;
3177;SDS011;38141;42.666;23.344;2023-05-10T03:51:59;9.33;;;6.37;;
3177;SDS011;38141;42.666;23.344;2023-05-10T03:54:26;10.07;;;6.97;;
3177;SDS011;38141;42.666;23.344;2023-05-10T03:56:52;9.20;;;6.50;;
3177;SDS011;38141;42.666;23.344;2023-05-10T03:59:19;10.33;;;6.13;;
3177;SDS011;38141;42.666;23.344;2023-05-10T04:01:47;10.03;;;6.23;;
3177;SDS011;38141;42.666;23.344;2023-05-10T04:04:14;7.67;;;5.33;;
3177;SDS011;38141;42.666;23.344;2023-05-10T04:06:43;8.90;;;6.00;;
3177;SDS011;38141;42.666;23.344;2023-05-10T04:09:10;10.30;;;6.70;;
3177;SDS011;38141;42.666;23.344;2023-05-10T04:11:37;8.67;;;6.30;;
3177;SDS011;38141;42.666;23.344;2023-05-10T04:14:03;8.10;;;6.03;;
3177;SDS011;38141;42.666;23.344;2023-05-10T04:16:30;10.27;;;6.17;;
3177;SDS011;38141;42.666;23.344;2023-05-10T04:18:58;9.23;;;6.90;;
3177;SDS011;38141;42.666;23.344;2023-05-10T04:21:25;7.40;;;6.67;;
3177;SDS011;38141;42.666;23.344;2023-05-10T04:23:52;8.90;;;6.90;;
3177;SDS011;38141;42.666;23.344;2023-05-10T04:26:19;9.00;;;6.30;;
3177;SDS011;38141;42.666;23.344;2023-05-10T04:28:45;8.40;;;5.40;;
3177;SDS011;38141;42.666;23.344;2023-05-10T04:31:12;8.10;;;6.10;;
3177;SDS011;38141;42.666;23.344;2023-05-10T04:33:39;10.70;;;6.00;;
3177;SDS011;38141;42.666;23.344;2023-05-10T04:36:07;10.77;;;7.23;;
3177;SDS011;38141;42.666;23.344;2023-05-10T04:38:34;10.70;;;7.23;;
3177;SDS011;38141;42.666;23.344;2023-05-10T04:41:04;9.13;;;6.40;;
3177;SDS011;38141;42.666;23.344;2023-05-10T04:43:31;10.50;;;6.80;;
3177;SDS011;38141;42.666;23.344;2023-05-10T04:45:58;10.60;;;7.23;;
3177;SDS011;38141;42.666;23.344;2023-05-10T04:48:25;10.50;;;7.23;;
3177;SDS011;38141;42.666;23.344;2023-05-10T04:50:52;9.80;;;6.70;;
3177;SDS011;38141;42.666;23.344;2023-05-10T04:53:20;9.37;;;6.30;;
3177;SDS011;38141;42.666;23.344;2023-05-10T04:55:47;14.33;;;7.50;;
3177;SDS011;38141;42.666;23.344;2023-05-10T04:58:14;10.67;;;7.33;;
3177;SDS011;38141;42.666;23.344;2023-05-10T05:00:41;11.50;;;7.57;;
3177;SDS011;38141;42.666;23.344;2023-05-10T05:03:07;10.90;;;6.80;;
3177;SDS011;38141;42.666;23.344;2023-05-10T05:05:34;8.80;;;6.13;;
3177;SDS011;38141;42.666;23.344;2023-05-10T05:08:01;13.20;;;8.50;;
3177;SDS011;38141;42.666;23.344;2023-05-10T05:10:29;10.90;;;7.33;;
3177;SDS011;38141;42.666;23.344;2023-05-10T05:12:56;11.30;;;7.50;;
3177;SDS011;38141;42.666;23.344;2023-05-10T05:15:23;12.03;;;8.17;;
3177;SDS011;38141;42.666;23.344;2023-05-10T05:17:50;13.73;;;7.97;;
3177;SDS011;38141;42.666;23.344;2023-05-10T05:20:16;13.03;;;7.80;;
3177;SDS011;38141;42.666;23.344;2023-05-10T05:22:44;9.97;;;7.37;;
3177;SDS011;38141;42.666;23.344;2023-05-10T05:25:10;10.83;;;7.43;;
3177;SDS011;38141;42.666;23.344;2023-05-10T05:27:39;10.43;;;8.00;;
3177;SDS011;38141;42.666;23.344;2023-05-10T05:30:06;11.77;;;8.07;;
3177;SDS011;38141;42.666;23.344;2023-05-10T05:32:33;12.60;;;8.37;;
3177;SDS011;38141;42.666;23.344;2023-05-10T05:35:00;13.77;;;8.20;;
3177;SDS011;38141;42.666;23.344;2023-05-10T05:37:27;10.70;;;7.77;;
3177;SDS011;38141;42.666;23.344;2023-05-10T05:39:54;13.80;;;8.90;;
3177;SDS011;38141;42.666;23.344;2023-05-10T05:42:21;16.80;;;8.43;;
3177;SDS011;38141;42.666;23.344;2023-05-10T05:44:49;14.20;;;8.50;;
3177;SDS011;38141;42.666;23.344;2023-05-10T05:47:16;13.90;;;8.00;;
3177;SDS011;38141;42.666;23.344;2023-05-10T05:49:42;10.80;;;7.77;;
3177;SDS011;38141;42.666;23.344;2023-05-10T05:52:10;10.30;;;7.80;;
3177;SDS011;38141;42.666;23.344;2023-05-10T05:54:37;13.07;;;8.87;;
3177;SDS011;38141;42.666;23.344;2023-05-10T05:57:04;12.47;;;8.30;;
3177;SDS011;38141;42.666;23.344;2023-05-10T05:59:31;14.77;;;8.83;;
3177;SDS011;38141;42.666;23.344;2023-05-10T06:01:59;17.47;;;9.27;;
3177;SDS011;38141;42.666;23.344;2023-05-10T06:04:26;16.50;;;9.77;;
3177;SDS011;38141;42.666;23.344;2023-05-10T06:06:53;13.47;;;9.27;;
3177;SDS011;38141;42.666;23.344;2023-05-10T06:09:20;14.87;;;10.10;;
3177;SDS011;38141;42.666;23.344;2023-05-10T06:11:48;15.80;;;9.40;;
3177;SDS011;38141;42.666;23.344;2023-05-10T06:14:15;16.10;;;9.20;;
3177;SDS011;38141;42.666;23.344;2023-05-10T06:16:42;13.37;;;9.03;;
3177;SDS011;38141;42.666;23.344;2023-05-10T06:19:10;17.23;;;11.10;;
3177;SDS011;38141;42.666;23.344;2023-05-10T06:21:37;14.47;;;9.67;;
3177;SDS011;38141;42.666;23.344;2023-05-10T06:24:07;15.03;;;8.87;;
3177;SDS011;38141;42.666;23.344;2023-05-10T06:26:34;16.37;;;10.37;;
3177;SDS011;38141;42.666;23.344;2023-05-10T06:29:00;18.30;;;9.50;;
3177;SDS011;38141;42.666;23.344;2023-05-10T06:31:28;15.43;;;9.87;;
3177;SDS011;38141;42.666;23.344;2023-05-10T06:33:55;14.03;;;10.23;;
3177;SDS011;38141;42.666;23.344;2023-05-10T06:36:25;15.73;;;10.13;;
3177;SDS011;38141;42.666;23.344;2023-05-10T06:38:52;13.00;;;9.70;;
3177;SDS011;38141;42.666;23.344;2023-05-10T06:41:19;17.23;;;10.50;;
3177;SDS011;38141;42.666;23.344;2023-05-10T06:43:46;20.60;;;9.53;;
3177;SDS011;38141;42.666;23.344;2023-05-10T06:46:12;13.87;;;8.80;;
3177;SDS011;38141;42.666;23.344;2023-05-10T06:48:39;15.87;;;9.73;;
3177;SDS011;38141;42.666;23.344;2023-05-10T06:51:06;13.00;;;9.50;;
3177;SDS011;38141;42.666;23.344;2023-05-10T06:53:34;15.10;;;10.00;;
3177;SDS011;38141;42.666;23.344;2023-05-10T06:56:01;15.23;;;9.90;;
3177;SDS011;38141;42.666;23.344;2023-05-10T06:58:28;16.30;;;10.10;;
3177;SDS011;38141;42.666;23.344;2023-05-10T07:01:01;13.97;;;9.60;;
3177;SDS011;38141;42.666;23.344;2023-05-10T07:03:28;14.20;;;9.73;;
3177;SDS011;38141;42.666;23.344;2023-05-10T07:05:59;13.00;;;9.03;;
3177;SDS011;38141;42.666;23.344;2023-05-10T07:08:28;12.80;;;9.20;;
3177;SDS011;38141;42.666;23.344;2023-05-10T07:11:00;15.03;;;9.40;;
3177;SDS011;38141;42.666;23.344;2023-05-10T07:13:28;14.30;;;9.37;;
3177;SDS011;38141;42.666;23.344;2023-05-10T07:15:55;14.60;;;9.80;;
3177;SDS011;38141;42.666;23.344;2023-05-10T07:18:22;10.33;;;7.37;;
3177;SDS011;38141;42.666;23.344;2023-05-10T07:20:49;16.43;;;10.17;;
3177;SDS011;38141;42.666;23.344;2023-05-10T07:23:16;12.50;;;8.47;;
3177;SDS011;38141;42.666;23.344;2023-05-10T07:25:44;10.40;;;7.77;;
3177;SDS011;38141;42.666;23.344;2023-05-10T07:28:12;16.13;;;9.17;;
3177;SDS011;38141;42.666;23.344;2023-05-10T07:30:40;12.60;;;8.10;;
3177;SDS011;38141;42.666;23.344;2023-05-10T07:33:07;12.30;;;8.97;;
3177;SDS011;38141;42.666;23.344;2023-05-10T07:35:35;12.00;;;8.20;;
3177;SDS011;38141;42.666;23.344;2023-05-10T07:38:02;13.77;;;9.10;;
3177;SDS011;38141;42.666;23.344;2023-05-10T07:40:29;12.47;;;8.63;;
3177;SDS011;38141;42.666;23.344;2023-05-10T07:42:57;12.70;;;8.90;;
3177;SDS011;38141;42.666;23.344;2023-05-10T07:45:27;14.47;;;9.73;;
3177;SDS011;38141;42.666;23.344;2023-05-10T07:47:56;12.30;;;9.50;;
3177;SDS011;38141;42.666;23.344;2023-05-10T07:50:23;15.43;;;9.73;;
3177;SDS011;38141;42.666;23.344;2023-05-10T07:52:50;19.87;;;10.90;;
3177;SDS011;38141;42.666;23.344;2023-05-10T07:55:18;14.37;;;9.43;;
3177;SDS011;38141;42.666;23.344;2023-05-10T07:57:46;15.30;;;10.00;;
3177;SDS011;38141;42.666;23.344;2023-05-10T08:00:13;16.43;;;9.97;;
3177;SDS011;38141;42.666;23.344;2023-05-10T08:02:45;22.53;;;11.03;;
3177;SDS011;38141;42.666;23.344;2023-05-10T08:05:12;15.57;;;9.17;;
3177;SDS011;38141;42.666;23.344;2023-05-10T08:07:39;13.83;;;9.77;;
3177;SDS011;38141;42.666;23.344;2023-05-10T08:10:15;12.97;;;10.07;;
3177;SDS011;38141;42.666;23.344;2023-05-10T08:12:42;14.83;;;9.57;;
3177;SDS011;38141;42.666;23.344;2023-05-10T08:15:26;15.03;;;9.60;;
3177;SDS011;38141;42.666;23.344;2023-05-10T08:17:55;16.17;;;10.90;;
3177;SDS011;38141;42.666;23.344;2023-05-10T08:20:22;16.33;;;10.87;;
3177;SDS011;38141;42.666;23.344;2023-05-10T08:22:50;16.17;;;10.03;;
3177;SDS011;38141;42.666;23.344;2023-05-10T08:25:17;16.20;;;9.13;;
3177;SDS011;38141;42.666;23.344;2023-05-10T08:27:43;14.07;;;9.20;;
3177;SDS011;38141;42.666;23.344;2023-05-10T08:30:23;17.23;;;9.90;;
3177;SDS011;38141;42.666;23.344;2023-05-10T08:32:50;17.13;;;10.20;;
3177;SDS011;38141;42.666;23.344;2023-05-10T08:35:26;15.57;;;10.53;;
3177;SDS011;38141;42.666;23.344;2023-05-10T08:37:53;15.03;;;9.90;;
3177;SDS011;38141;42.666;23.344;2023-05-10T08:40:20;17.47;;;11.43;;
3177;SDS011;38141;42.666;23.344;2023-05-10T08:42:54;22.67;;;11.20;;
3177;SDS011;38141;42.666;23.344;2023-05-10T08:45:24;14.40;;;11.00;;
3177;SDS011;38141;42.666;23.344;2023-05-10T08:47:57;15.70;;;10.83;;
3177;SDS011;38141;42.666;23.344;2023-05-10T08:50:27;14.90;;;10.20;;
3177;SDS011;38141;42.666;23.344;2023-05-10T08:52:56;15.37;;;10.83;;
3177;SDS011;38141;42.666;23.344;2023-05-10T08:55:35;15.77;;;10.60;;
3177;SDS011;38141;42.666;23.344;2023-05-10T08:58:04;20.93;;;12.97;;
3177;SDS011;38141;42.666;23.344;2023-05-10T09:00:31;17.47;;;11.00;;
3177;SDS011;38141;42.666;23.344;2023-05-10T09:02:58;14.73;;;11.10;;
3177;SDS011;38141;42.666;23.344;2023-05-10T09:05:26;16.53;;;11.80;;
3177;SDS011;38141;42.666;23.344;2023-05-10T09:07:53;15.20;;;10.37;;
3177;SDS011;38141;42.666;23.344;2023-05-10T09:10:22;14.93;;;10.40;;
3177;SDS011;38141;42.666;23.344;2023-05-10T09:12:52;13.07;;;9.70;;
3177;SDS011;38141;42.666;23.344;2023-05-10T09:15:34;13.30;;;10.30;;
3177;SDS011;38141;42.666;23.344;2023-05-10T09:18:01;15.73;;;11.37;;
3177;SDS011;38141;42.666;23.344;2023-05-10T09:20:30;16.63;;;11.60;;
3177;SDS011;38141;42.666;23.344;2023-05-10T09:22:57;15.00;;;10.23;;
3177;SDS011;38141;42.666;23.344;2023-05-10T09:25:24;15.43;;;10.70;;
3177;SDS011;38141;42.666;23.344;2023-05-10T09:27:51;17.70;;;10.70;;
3177;SDS011;38141;42.666;23.344;2023-05-10T09:30:23;17.77;;;10.63;;
3177;SDS011;38141;42.666;23.344;2023-05-10T09:32:50;14.30;;;10.40;;
3177;SDS011;38141;42.666;23.344;2023-05-10T09:35:18;15.73;;;10.97;;
3177;SDS011;38141;42.666;23.344;2023-05-10T09:37:49;16.23;;;10.57;;
3177;SDS011;38141;42.666;23.344;2023-05-10T09:40:26;18.90;;;11.70;;
3177;SDS011;38141;42.666;23.344;2023-05-10T09:42:54;13.67;;;10.57;;
3177;SDS011;38141;42.666;23.344;2023-05-10T09:45:25;16.10;;;11.80;;
3177;SDS011;38141;42.666;23.344;2023-05-10T09:48:02;13.23;;;10.63;;
3177;SDS011;38141;42.666;23.344;2023-05-10T09:50:30;19.70;;;12.73;;
3177;SDS011;38141;42.666;23.344;2023-05-10T09:52:59;15.27;;;10.80;;
3177;SDS011;38141;42.666;23.344;2023-05-10T09:55:37;14.70;;;10.20;;
3177;SDS011;38141;42.666;23.344;2023-05-10T09:58:06;13.83;;;9.87;;
3177;SDS011;38141;42.666;23.344;2023-05-10T10:00:35;14.83;;;10.93;;
3177;SDS011;38141;42.666;23.344;2023-05-10T10:03:03;17.30;;;10.20;;
3177;SDS011;38141;42.666;23.344;2023-05-10T10:05:31;12.70;;;9.30;;
3177;SDS011;38141;42.666;23.344;2023-05-10T10:08:02;14.73;;;10.20;;
3177;SDS011;38141;42.666;23.344;2023-05-10T10:10:30;14.03;;;10.03;;
3177;SDS011;38141;42.666;23.344;2023-05-10T10:12:58;11.53;;;8.60;;
3177;SDS011;38141;42.666;23.344;2023-05-10T10:15:26;11.20;;;9.33;;
3177;SDS011;38141;42.666;23.344;2023-05-10T10:17:53;13.97;;;9.60;;
3177;SDS011;38141;42.666;23.344;2023-05-10T10:20:20;11.73;;;9.20;;
3177;SDS011;38141;42.666;23.344;2023-05-10T10:22:49;12.43;;;9.50;;
3177;SDS011;38141;42.666;23.344;2023-05-10T10:25:18;14.17;;;9.73;;
3177;SDS011;38141;42.666;23.344;2023-05-10T10:27:48;10.87;;;9.33;;
3177;SDS011;38141;42.666;23.344;2023-05-10T10:30:29;15.87;;;11.20;;
3177;SDS011;38141;42.666;23.344;2023-05-10T10:33:16;14.73;;;9.43;;
3177;SDS011;38141;42.666;23.344;2023-05-10T10:35:57;14.40;;;9.00;;
3177;SDS011;38141;42.666;23.344;2023-05-10T10:38:30;18.70;;;10.10;;
3177;SDS011;38141;42.666;23.344;2023-05-10T10:41:10;12.57;;;9.30;;
3177;SDS011;38141;42.666;23.344;2023-05-10T10:47:00;11.17;;;8.23;;
3177;SDS011;38141;42.666;23.344;2023-05-10T10:49:31;15.83;;;8.30;;
3177;SDS011;38141;42.666;23.344;2023-05-10T10:54:59;11.63;;;8.40;;
3177;SDS011;38141;42.666;23.344;2023-05-10T10:57:30;10.27;;;8.17;;
3177;SDS011;38141;42.666;23.344;2023-05-10T11:02:53;11.20;;;8.30;;
3177;SDS011;38141;42.666;23.344;2023-05-10T11:05:33;12.37;;;8.57;;
3177;SDS011;38141;42.666;23.344;2023-05-10T11:08:11;10.87;;;7.93;;
3177;SDS011;38141;42.666;23.344;2023-05-10T11:13:34;10.80;;;8.57;;
3177;SDS011;38141;42.666;23.344;2023-05-10T11:16:13;11.23;;;8.20;;
3177;SDS011;38141;42.666;23.344;2023-05-10T11:18:55;13.57;;;8.17;;
3177;SDS011;38141;42.666;23.344;2023-05-10T11:21:25;12.03;;;9.20;;
3177;SDS011;38141;42.666;23.344;2023-05-10T11:23:52;11.40;;;7.20;;
3177;SDS011;38141;42.666;23.344;2023-05-10T11:26:22;11.40;;;8.30;;
3177;SDS011;38141;42.666;23.344;2023-05-10T11:28:52;13.03;;;9.23;;
3177;SDS011;38141;42.666;23.344;2023-05-10T11:31:21;10.63;;;8.43;;
3177;SDS011;38141;42.666;23.344;2023-05-10T11:33:52;10.97;;;7.70;;
3177;SDS011;38141;42.666;23.344;2023-05-10T11:36:20;11.33;;;9.03;;
3177;SDS011;38141;42.666;23.344;2023-05-10T11:38:48;12.80;;;8.23;;
3177;SDS011;38141;42.666;23.344;2023-05-10T11:41:15;9.77;;;7.90;;
3177;SDS011;38141;42.666;23.344;2023-05-10T11:43:45;13.07;;;8.60;;
3177;SDS011;38141;42.666;23.344;2023-05-10T11:46:15;15.03;;;8.47;;
3177;SDS011;38141;42.666;23.344;2023-05-10T11:48:45;10.50;;;8.90;;
3177;SDS011;38141;42.666;23.344;2023-05-10T11:51:14;12.13;;;7.87;;
3177;SDS011;38141;42.666;23.344;2023-05-10T11:53:42;12.77;;;8.90;;
3177;SDS011;38141;42.666;23.344;2023-05-10T11:56:09;11.43;;;8.30;;
3177;SDS011;38141;42.666;23.344;2023-05-10T11:58:38;10.13;;;8.60;;
3177;SDS011;38141;42.666;23.344;2023-05-10T12:01:06;10.77;;;8.20;;
3177;SDS011;38141;42.666;23.344;2023-05-10T12:03:37;13.10;;;8.43;;
3177;SDS011;38141;42.666;23.344;2023-05-10T12:06:04;9.73;;;7.60;;
3177;SDS011;38141;42.666;23.344;2023-05-10T12:08:33;15.27;;;9.60;;
3177;SDS011;38141;42.666;23.344;2023-05-10T12:11:04;16.90;;;9.73;;
3177;SDS011;38141;42.666;23.344;2023-05-10T12:13:31;12.47;;;9.20;;
3177;SDS011;38141;42.666;23.344;2023-05-10T12:15:58;12.93;;;9.13;;
3177;SDS011;38141;42.666;23.344;2023-05-10T12:18:25;11.70;;;8.77;;
3177;SDS011;38141;42.666;23.344;2023-05-10T12:20:54;12.50;;;9.03;;
3177;SDS011;38141;42.666;23.344;2023-05-10T12:23:29;15.80;;;9.00;;
3177;SDS011;38141;42.666;23.344;2023-05-10T12:26:01;10.67;;;8.27;;
3177;SDS011;38141;42.666;23.344;2023-05-10T12:28:29;12.73;;;8.87;;
3177;SDS011;38141;42.666;23.344;2023-05-10T12:30:57;18.13;;;9.53;;
3177;SDS011;38141;42.666;23.344;2023-05-10T12:33:24;13.13;;;8.90;;
3177;SDS011;38141;42.666;23.344;2023-05-10T12:35:51;13.33;;;9.30;;
3177;SDS011;38141;42.666;23.344;2023-05-10T12:38:25;12.23;;;9.13;;
3177;SDS011;38141;42.666;23.344;2023-05-10T12:40:55;13.53;;;9.07;;
3177;SDS011;38141;42.666;23.344;2023-05-10T12:43:22;11.80;;;8.27;;
3177;SDS011;38141;42.666;23.344;2023-05-10T12:45:49;11.13;;;8.23;;
3177;SDS011;38141;42.666;23.344;2023-05-10T12:48:17;12.47;;;8.40;;
3177;SDS011;38141;42.666;23.344;2023-05-10T12:50:45;14.63;;;8.93;;
3177;SDS011;38141;42.666;23.344;2023-05-10T12:53:12;10.00;;;8.20;;
3177;SDS011;38141;42.666;23.344;2023-05-10T12:55:41;12.20;;;8.40;;
3177;SDS011;38141;42.666;23.344;2023-05-10T12:58:08;12.40;;;8.40;;
3177;SDS011;38141;42.666;23.344;2023-05-10T13:00:35;12.00;;;8.70;;
3177;SDS011;38141;42.666;23.344;2023-05-10T13:03:03;13.07;;;9.37;;
3177;SDS011;38141;42.666;23.344;2023-05-10T13:05:30;12.90;;;8.57;;
3177;SDS011;38141;42.666;23.344;2023-05-10T13:07:57;15.23;;;8.90;;
3177;SDS011;38141;42.666;23.344;2023-05-10T13:10:24;11.80;;;8.47;;
3177;SDS011;38141;42.666;23.344;2023-05-10T13:12:52;18.40;;;9.60;;
3177;SDS011;38141;42.666;23.344;2023-05-10T13:15:19;13.33;;;9.40;;
3177;SDS011;38141;42.666;23.344;2023-05-10T13:17:45;16.27;;;9.50;;
3177;SDS011;38141;42.666;23.344;2023-05-10T13:20:12;10.87;;;8.37;;
3177;SDS011;38141;42.666;23.344;2023-05-10T13:22:39;19.73;;;9.70;;
3177;SDS011;38141;42.666;23.344;2023-05-10T13:25:07;9.87;;;8.33;;
3177;SDS011;38141;42.666;23.344;2023-05-10T13:27:34;13.50;;;9.03;;
3177;SDS011;38141;42.666;23.344;2023-05-10T13:30:03;15.13;;;8.13;;
3177;SDS011;38141;42.666;23.344;2023-05-10T13:32:30;15.93;;;7.87;;
3177;SDS011;38141;42.666;23.344;2023-05-10T13:34:57;14.00;;;8.17;;
3177;SDS011;38141;42.666;23.344;2023-05-10T13:37:23;13.87;;;8.07;;
3177;SDS011;38141;42.666;23.344;2023-05-10T13:39:50;11.80;;;8.70;;
3177;SDS011;38141;42.666;23.344;2023-05-10T13:42:17;11.17;;;8.50;;
3177;SDS011;38141;42.666;23.344;2023-05-10T13:44:44;12.17;;;8.10;;
3177;SDS011;38141;42.666;23.344;2023-05-10T13:47:12;9.90;;;7.60;;
3177;SDS011;38141;42.666;23.344;2023-05-10T13:49:39;13.83;;;8.43;;
3177;SDS011;38141;42.666;23.344;2023-05-10T13:52:08;17.30;;;8.00;;
3177;SDS011;38141;42.666;23.344;2023-05-10T13:54:35;11.30;;;8.50;;
3177;SDS011;38141;42.666;23.344;2023-05-10T13:57:03;13.67;;;8.43;;
3177;SDS011;38141;42.666;23.344;2023-05-10T13:59:32;11.40;;;8.10;;
3177;SDS011;38141;42.666;23.344;2023-05-10T14:01:59;13.53;;;8.07;;
3177;SDS011;38141;42.666;23.344;2023-05-10T14:04:29;16.20;;;9.47;;
3177;SDS011;38141;42.666;23.344;2023-05-10T14:06:56;12.80;;;8.47;;
3177;SDS011;38141;42.666;23.344;2023-05-10T14:09:24;10.53;;;8.03;;
3177;SDS011;38141;42.666;23.344;2023-05-10T14:11:51;14.23;;;8.50;;
3177;SDS011;38141;42.666;23.344;2023-05-10T14:14:18;17.30;;;7.90;;
3177;SDS011;38141;42.666;23.344;2023-05-10T14:16:45;11.27;;;8.07;;
3177;SDS011;38141;42.666;23.344;2023-05-10T14:21:43;13.57;;;8.47;;
3177;SDS011;38141;42.666;23.344;2023-05-10T14:24:10;13.07;;;9.10;;
3177;SDS011;38141;42.666;23.344;2023-05-10T14:26:37;10.83;;;8.30;;
3177;SDS011;38141;42.666;23.344;2023-05-10T14:29:04;12.63;;;8.30;;
3177;SDS011;38141;42.666;23.344;2023-05-10T14:34:01;11.33;;;8.80;;
3177;SDS011;38141;42.666;23.344;2023-05-10T14:36:28;17.10;;;9.10;;
3177;SDS011;38141;42.666;23.344;2023-05-10T14:38:56;14.03;;;9.50;;
3177;SDS011;38141;42.666;23.344;2023-05-10T14:41:23;12.70;;;8.97;;
3177;SDS011;38141;42.666;23.344;2023-05-10T14:43:50;13.20;;;9.03;;
3177;SDS011;38141;42.666;23.344;2023-05-10T14:46:17;14.93;;;8.20;;
3177;SDS011;38141;42.666;23.344;2023-05-10T14:48:44;13.93;;;9.07;;
3177;SDS011;38141;42.666;23.344;2023-05-10T14:51:11;13.03;;;8.50;;
3177;SDS011;38141;42.666;23.344;2023-05-10T14:53:38;13.63;;;8.80;;
3177;SDS011;38141;42.666;23.344;2023-05-10T14:56:06;12.63;;;8.63;;
3177;SDS011;38141;42.666;23.344;2023-05-10T14:58:40;13.33;;;8.60;;
3177;SDS011;38141;42.666;23.344;2023-05-10T15:01:07;12.10;;;8.70;;
3177;SDS011;38141;42.666;23.344;2023-05-10T15:03:34;13.87;;;8.23;;